Terminal Aerodrome Forecast
Issued by NWS Corpus Christi, TX

Home | Current Version | Previous Version | Text Only | Print | Product List | Glossary On
Versions: 1 2 3 4 5 6 7 8 9 10 11 12 13 14 15
000
FTUS44 KCRP 170900 AAA
TAFCRP
TAF AMD
KCRP 170919Z 1709/1806 13009KT P6SM FEW028 OVC250
      TEMPO 1712/1716 P6SM BKN025
     FM171600 12013KT P6SM BKN025 BKN040 OVC250
     FM172200 11016G22KT P6SM OVC022
     FM180300 09010KT P6SM OVC012=

USA.gov is the U.S. government's official web portal to all federal, state and local government web resources and services.